Time;durP1;ratioP1;P1;durP2;ratioP2;P2;SDS_P1;SDS_P2;PMS_P1;PMS_P2;Temp;Humidity;BMP_temperature;BMP_pressure;BME280_temperature;BME280_humidity;BME280_pressure;Samples;Min_cycle;Max_cycle;Signal;HPM_P1;HPM_P2
2024/01/07 00:05:18;;;;;;;9.4;5.3;;;;;;;-0.82;90.64;98010;;;;
2024/01/07 00:15:18;;;;;;;10.5;6.3;;;;;;;-0.92;90.73;98010;;;;
2024/01/07 00:26:18;;;;;;;10.5;6.3;;;;;;;-1.1;89.98;98021.666666667;;;;
2024/01/07 00:36:18;;;;;;;10.5;6.3;;;;;;;-1.04;89.88;98023.333333333;;;;
2024/01/07 00:47:18;;;;;;;11;5.6;;;;;;;-1.16;90.27;98026.666666667;;;;
2024/01/07 00:58:18;;;;;;;11;5.6;;;;;;;-1.3;90.28;98033.333333333;;;;
2024/01/07 01:08:18;;;;;;;11;5.6;;;;;;;-1.27;90.22;98043.333333333;;;;
2024/01/07 01:19:18;;;;;;;11.6;6.3;;;;;;;-1.33;89.51;98051.666666667;;;;
2024/01/07 01:29:18;;;;;;;11.6;6.3;;;;;;;-1.32;90.56;98050;;;;
2024/01/07 01:40:18;;;;;;;9.6;5.1;;;;;;;-1.74;90.96;98063.333333333;;;;
2024/01/07 01:50:18;;;;;;;9.6;5.1;;;;;;;-1.46;91.64;98061.666666667;;;;
2024/01/07 02:01:18;;;;;;;9.6;5.1;;;;;;;-1.88;91.28;98066.666666667;;;;
2024/01/07 02:11:18;;;;;;;8.9;4.1;;;;;;;-1.83;91.22;98073.333333333;;;;
2024/01/07 02:22:18;;;;;;;8.9;4.1;;;;;;;-2.05;90.46;98076.666666667;;;;
2024/01/07 02:32:18;;;;;;;8.9;4.1;;;;;;;-2.09;90.86;98073.333333333;;;;
2024/01/07 02:42:18;;;;;;;6;4.2;;;;;;;-2.06;91.02;98076.666666667;;;;
2024/01/07 02:52:18;;;;;;;6;4.2;;;;;;;-2.19;90.6;98078.333333333;;;;
2024/01/07 03:03:18;;;;;;;6;4.2;;;;;;;-2.46;90.1;98086.666666667;;;;
2024/01/07 03:13:18;;;;;;;7.9;4.5;;;;;;;-2.56;90.18;98081.666666667;;;;
2024/01/07 03:24:18;;;;;;;7.9;4.5;;;;;;;-2.78;89.8;98085;;;;
2024/01/07 03:34:18;;;;;;;7.9;4.5;;;;;;;-2.75;90.3;98090;;;;
2024/01/07 03:44:18;;;;;;;5.4;3;;;;;;;-2.79;90.07;98088.333333333;;;;
2024/01/07 03:54:18;;;;;;;5.4;3;;;;;;;-2.81;90.5;98098.333333333;;;;
2024/01/07 04:05:18;;;;;;;5.4;3;;;;;;;-2.8;89.99;98105;;;;
2024/01/07 04:15:18;;;;;;;6.5;3.2;;;;;;;-2.92;89.51;98106.666666667;;;;
2024/01/07 04:26:18;;;;;;;6.5;3.2;;;;;;;-3.08;87.83;98121.666666667;;;;
2024/01/07 04:36:18;;;;;;;6.5;3.2;;;;;;;-3.24;88.33;98125;;;;
2024/01/07 04:47:18;;;;;;;4.9;2.8;;;;;;;-3.26;88.36;98128.333333333;;;;
2024/01/07 04:58:18;;;;;;;4.9;2.8;;;;;;;-3.2;87.88;98143.333333333;;;;
2024/01/07 05:08:18;;;;;;;5;2.4;;;;;;;-3.32;87.87;98151.666666667;;;;
2024/01/07 05:19:18;;;;;;;5;2.4;;;;;;;-3.33;87.84;98158.333333333;;;;
2024/01/07 05:29:19;;;;;;;5;2.4;;;;;;;-3.3;87.89;98156.666666667;;;;
2024/01/07 05:39:18;;;;;;;5.4;2.8;;;;;;;-3.28;87.74;98165;;;;
2024/01/07 05:50:20;;;;;;;5.4;2.8;;;;;;;-3.5;87.78;98168.333333333;;;;
2024/01/07 06:00:18;;;;;;;5.4;2.8;;;;;;;-3.31;87.68;98171.666666667;;;;
2024/01/07 06:10:18;;;;;;;4.8;2.7;;;;;;;-3.28;87.76;98186.666666667;;;;
2024/01/07 06:21:18;;;;;;;4.8;2.7;;;;;;;-3.41;88.31;98191.666666667;;;;
2024/01/07 06:31:18;;;;;;;4.8;2.7;;;;;;;-3.3;87.98;98201.666666667;;;;
2024/01/07 06:42:18;;;;;;;8.4;3.4;;;;;;;-3.21;88.06;98211.666666667;;;;
2024/01/07 06:53:18;;;;;;;;;;;;;;;;;98226.666666667;;;;
2024/01/07 07:03:18;;;;;;;;;;;;;;;;;98230;;;;
2024/01/07 07:14:18;;;;;;;;;;;;;;;;;98245;;;;
2024/01/07 07:25:18;;;;;;;;;;;;;;;;;98253.333333333;;;;
2024/01/07 07:36:18;;;;;;;;;;;;;;;-3.21;86.59;98265;;;;
2024/01/07 07:47:18;;;;;;;11.1;4.6;;;;;;;-3.36;86.34;98265;;;;
2024/01/07 07:57:20;;;;;;;11.1;4.6;;;;;;;-3.33;86.88;98275;;;;
2024/01/07 08:07:18;;;;;;;9.5;5.8;;;;;;;-3.23;86.18;98295;;;;
2024/01/07 08:18:18;;;;;;;9.5;5.8;;;;;;;-3.13;85.53;98301.666666667;;;;
2024/01/07 08:28:18;;;;;;;9.5;5.8;;;;;;;-3.1;85.72;98308.333333333;;;;
2024/01/07 08:38:18;;;;;;;5.7;3.7;;;;;;;-3.38;85.44;98305;;;;
2024/01/07 08:48:18;;;;;;;5.7;3.7;;;;;;;-3.18;84.74;98315;;;;
2024/01/07 08:58:18;;;;;;;5.7;3.7;;;;;;;-3.27;84.78;98325;;;;
2024/01/07 09:09:18;;;;;;;9.9;5.8;;;;;;;-2.94;84.18;98331.666666667;;;;
2024/01/07 09:19:18;;;;;;;9.9;5.8;;;;;;;-2.99;82.95;98330;;;;
2024/01/07 09:30:18;;;;;;;9.9;5.8;;;;;;;-3.02;82.55;98328.333333333;;;;
2024/01/07 09:40:19;;;;;;;12.4;5.4;;;;;;;-3.15;82.52;98326.666666667;;;;
2024/01/07 09:50:19;;;;;;;12.4;5.4;;;;;;;-2.67;82.67;98333.333333333;;;;
2024/01/07 10:00:18;;;;;;;12.4;5.4;;;;;;;-2.83;81.51;98330;;;;
2024/01/07 10:10:18;;;;;;;8.5;4.9;;;;;;;-2.92;81.9;98335;;;;
2024/01/07 10:21:18;;;;;;;8.5;4.9;;;;;;;-2.41;82.43;98328.333333333;;;;
2024/01/07 10:31:18;;;;;;;8.5;4.9;;;;;;;-3;82.25;98325;;;;
2024/01/07 10:42:18;;;;;;;9.8;5.7;;;;;;;-2.83;82.12;98315;;;;
2024/01/07 10:53:18;;;;;;;9.8;5.7;;;;;;;-2.93;82.79;98311.666666667;;;;
2024/01/07 11:03:19;;;;;;;9.8;5.7;;;;;;;-2.74;82.07;98306.666666667;;;;
2024/01/07 11:14:18;;;;;;;12.6;8.3;;;;;;;-2.69;81.44;98313.333333333;;;;
2024/01/07 11:25:19;;;;;;;12.6;8.3;;;;;;;-2.35;81.61;98316.666666667;;;;
2024/01/07 11:35:18;;;;;;;12.6;8.3;;;;;;;-2.45;81.17;98321.666666667;;;;
2024/01/07 11:46:18;;;;;;;8.1;5.5;;;;;;;-2.97;80.94;98325;;;;
2024/01/07 11:57:18;;;;;;;8.1;5.5;;;;;;;-2.88;81.67;98330;;;;
2024/01/07 12:07:18;;;;;;;11.6;6.4;;;;;;;-2.62;79.42;98338.333333333;;;;
2024/01/07 12:18:18;;;;;;;11.6;6.4;;;;;;;-3.18;82.49;98345;;;;
2024/01/07 12:29:18;;;;;;;11.6;6.4;;;;;;;-2.64;82.16;98350;;;;
2024/01/07 12:39:19;;;;;;;13.7;8;;;;;;;-2.53;81.54;98360;;;;
2024/01/07 12:49:18;;;;;;;13.7;8;;;;;;;-2.71;81.72;98371.666666667;;;;
2024/01/07 12:59:19;;;;;;;13.7;8;;;;;;;-2.9;82.4;98380;;;;
2024/01/07 13:10:18;;;;;;;20.6;11.3;;;;;;;-2.75;82.05;98388.333333333;;;;
2024/01/07 13:21:18;;;;;;;20.6;11.3;;;;;;;-2.85;82.35;98400;;;;
2024/01/07 13:31:18;;;;;;;20.6;11.3;;;;;;;-2.95;83.07;98405;;;;
2024/01/07 13:42:19;;;;;;;30.3;17.7;;;;;;;-3.2;81.57;98415;;;;
2024/01/07 13:53:18;;;;;;;30.3;17.7;;;;;;;-3.18;82.62;98426.666666667;;;;
2024/01/07 14:03:20;;;;;;;30.3;17.7;;;;;;;-3.37;83.82;98441.666666667;;;;
2024/01/07 14:13:19;;;;;;;16;9.5;;;;;;;-4.02;84.52;98456.666666667;;;;
2024/01/07 14:23:19;;;;;;;16;9.5;;;;;;;-4.1;85.28;98461.666666667;;;;
2024/01/07 14:33:19;;;;;;;16;9.5;;;;;;;-4.14;85.25;98461.666666667;;;;
2024/01/07 14:44:19;;;;;;;16.4;10;;;;;;;-4.25;85.19;98473.333333333;;;;
2024/01/07 14:55:19;;;;;;;16.4;10;;;;;;;-4.69;83.99;98480;;;;
2024/01/07 15:05:19;;;;;;;16.4;10;;;;;;;-4.73;84.52;98491.666666667;;;;
2024/01/07 15:16:18;;;;;;;11;6.7;;;;;;;-4.83;84.46;98498.333333333;;;;
2024/01/07 15:26:18;;;;;;;11;6.7;;;;;;;-4.96;84.22;98506.666666667;;;;
2024/01/07 15:36:19;;;;;;;17.1;9.8;;;;;;;-4.97;84.71;98515;;;;
2024/01/07 15:47:19;;;;;;;17.1;9.8;;;;;;;-4.82;85.06;98533.333333333;;;;
2024/01/07 15:57:19;;;;;;;17.1;9.8;;;;;;;-5.06;84.82;98540;;;;
2024/01/07 16:07:19;;;;;;;19.1;12.2;;;;;;;-5.14;85.71;98551.666666667;;;;
2024/01/07 16:18:19;;;;;;;19.1;12.2;;;;;;;-5.1;85.4;98551.666666667;;;;
2024/01/07 16:29:19;;;;;;;19.1;12.2;;;;;;;-5.54;85.61;98571.666666667;;;;
2024/01/07 16:40:19;;;;;;;14.4;8.8;;;;;;;-5.51;85.85;98585;;;;
2024/01/07 16:50:19;;;;;;;14.4;8.8;;;;;;;-5.61;85.51;98595;;;;
2024/01/07 17:01:19;;;;;;;14.4;8.8;;;;;;;-5.67;85.48;98601.666666667;;;;
2024/01/07 17:11:19;;;;;;;13.9;9.5;;;;;;;-5.61;85.79;98618.333333333;;;;
2024/01/07 17:22:19;;;;;;;13.9;9.5;;;;;;;-5.51;85.64;98630;;;;
2024/01/07 17:32:22;;;;;;;13.9;9.5;;;;;;;-5.74;84.15;98635;;;;
2024/01/07 17:43:19;;;;;;;25.2;12.3;;;;;;;-5.87;84.59;98651.666666667;;;;
2024/01/07 17:54:19;;;;;;;25.2;12.3;;;;;;;-5.99;83.28;98663.333333333;;;;
2024/01/07 18:05:19;;;;;;;25.2;12.3;;;;;;;-6.2;82.66;98671.666666667;;;;
2024/01/07 18:16:19;;;;;;;15.9;10.9;;;;;;;-6.15;83.36;98683.333333333;;;;
2024/01/07 18:26:20;;;;;;;15.9;10.9;;;;;;;-6.23;82.17;98691.666666667;;;;
2024/01/07 18:36:19;;;;;;;21.3;11.6;;;;;;;-6.16;82.07;98700;;;;
2024/01/07 18:47:19;;;;;;;21.3;11.6;;;;;;;-6.14;82.64;98720;;;;
2024/01/07 18:58:19;;;;;;;21.3;11.6;;;;;;;-6.13;83.19;98731.666666667;;;;
2024/01/07 19:08:19;;;;;;;23.3;15.7;;;;;;;-6.33;84.51;98733.333333333;;;;
2024/01/07 19:18:19;;;;;;;23.3;15.7;;;;;;;-6.09;84.1;98743.333333333;;;;
2024/01/07 19:29:19;;;;;;;23.3;15.7;;;;;;;-6.1;83.47;98753.333333333;;;;
2024/01/07 19:39:19;;;;;;;20.2;8.8;;;;;;;-6.02;83.05;98760;;;;
2024/01/07 19:50:19;;;;;;;20.2;8.8;;;;;;;-5.94;82.34;98765;;;;
2024/01/07 20:01:19;;;;;;;20.2;8.8;;;;;;;-6.02;82.46;98775;;;;
2024/01/07 20:11:19;;;;;;;19.3;10.2;;;;;;;-5.98;82.19;98783.333333333;;;;
2024/01/07 20:22:19;;;;;;;19.3;10.2;;;;;;;-6.09;81.88;98785;;;;
2024/01/07 20:33:20;;;;;;;19.3;10.2;;;;;;;-5.85;82.57;98795;;;;
2024/01/07 20:43:19;;;;;;;20;11.1;;;;;;;-5.69;81.56;98805;;;;
2024/01/07 20:53:20;;;;;;;20;11.1;;;;;;;-6.16;79.58;98816.666666667;;;;
2024/01/07 21:04:19;;;;;;;20;11.1;;;;;;;-6.27;79.93;98826.666666667;;;;
2024/01/07 21:14:19;;;;;;;14.4;8.6;;;;;;;-6.17;80.64;98835;;;;
2024/01/07 21:24:19;;;;;;;14.4;8.6;;;;;;;-6.26;80.67;98843.333333333;;;;
2024/01/07 21:34:19;;;;;;;14.4;8.6;;;;;;;-6.18;80.75;98851.666666667;;;;
2024/01/07 21:44:21;;;;;;;28.2;15.5;;;;;;;-6.06;81.05;98858.333333333;;;;
2024/01/07 21:55:19;;;;;;;28.2;15.5;;;;;;;-6.09;81.84;98865;;;;
2024/01/07 22:06:19;;;;;;;11.5;7.2;;;;;;;-6.11;81.54;98876.666666667;;;;
2024/01/07 22:17:19;;;;;;;11.5;7.2;;;;;;;-6.1;82.07;98881.666666667;;;;
2024/01/07 22:27:19;;;;;;;11.5;7.2;;;;;;;-6.5;81.59;98883.333333333;;;;
2024/01/07 22:38:19;;;;;;;21.9;8.9;;;;;;;-6.5;80.88;98893.333333333;;;;
2024/01/07 22:48:19;;;;;;;21.9;8.9;;;;;;;-6.74;81.5;98906.666666667;;;;
2024/01/07 22:59:19;;;;;;;21.9;8.9;;;;;;;-6.8;82.2;98915;;;;
2024/01/07 23:02:35;;;;;;;21.9;8.9;;;;;;;-6.92;82.24;98915;;;;
2024/01/07 23:04:09;;;;;;;21.9;8.9;;;;;;;-6.8;82.23;98920;;;;
2024/01/07 23:14:09;;;;;;;15.4;8.1;;;;;;;-7.05;80.69;98930;;;;
2024/01/07 23:25:09;;;;;;;15.4;8.1;;;;;;;-7;80.05;98943.333333333;;;;
2024/01/07 23:35:09;;;;;;;11.7;5.9;;;;;;;-7.11;80.82;98951.666666667;;;;
2024/01/07 23:46:09;;;;;;;11.7;5.9;;;;;;;-7.26;80.69;98963.333333333;;;;
2024/01/07 23:57:09;;;;;;;11.7;5.9;;;;;;;-7.14;80.37;98975;;;;
